createdAt,value
2022-09-01T00:01:21.433Z,39.43
2022-09-01T00:03:49.096Z,40.06
2022-09-01T00:06:22.451Z,40.76
2022-09-01T00:08:53.713Z,42.01
2022-09-01T00:11:21.443Z,42.00
2022-09-01T00:13:48.608Z,44.44
2022-09-01T00:16:17.877Z,43.38
2022-09-01T00:18:49.880Z,43.12
2022-09-01T00:21:37.516Z,44.62
2022-09-01T00:24:05.240Z,44.89
2022-09-01T00:26:32.702Z,45.64
2022-09-01T00:28:59.903Z,44.93
2022-09-01T00:31:27.312Z,44.39
2022-09-01T00:33:54.860Z,44.19
2022-09-01T00:36:22.125Z,44.33
2022-09-01T00:38:49.651Z,44.02
2022-09-01T00:41:19.124Z,43.41
2022-09-01T00:43:53.527Z,43.74
2022-09-01T00:46:25.091Z,43.66
2022-09-01T00:48:57.538Z,44.11
2022-09-01T00:51:25.340Z,43.66
2022-09-01T00:53:52.531Z,44.12
2022-09-01T00:56:19.734Z,43.88
2022-09-01T00:58:47.578Z,44.00
2022-09-01T01:01:14.899Z,43.46
2022-09-01T01:03:45.500Z,42.50
2022-09-01T01:06:13.718Z,42.96
2022-09-01T01:08:42.041Z,43.33
2022-09-01T01:11:10.459Z,43.81
2022-09-01T01:13:49.379Z,42.82
2022-09-01T01:16:18.120Z,43.32
2022-09-01T01:18:46.554Z,43.04
2022-09-01T01:21:41.785Z,42.77
2022-09-01T01:24:22.030Z,42.63
2022-09-01T01:26:49.795Z,42.38
2022-09-01T01:29:17.732Z,43.61
2022-09-01T01:31:47.548Z,42.99
2022-09-01T01:34:15.263Z,43.39
2022-09-01T01:36:42.844Z,43.71
2022-09-01T01:39:28.759Z,43.47
2022-09-01T01:41:57.094Z,43.08
2022-09-01T01:44:28.325Z,44.14
2022-09-01T01:46:57.519Z,44.32
2022-09-01T01:49:26.032Z,44.18
2022-09-01T01:51:56.164Z,45.00
2022-09-01T01:54:25.862Z,44.99
2022-09-01T01:56:55.669Z,45.57
2022-09-01T01:59:24.732Z,45.34
2022-09-01T02:01:52.743Z,45.48
2022-09-01T02:04:20.679Z,44.67
2022-09-01T02:06:48.607Z,44.34
2022-09-01T02:09:16.595Z,43.67
2022-09-01T02:11:45.662Z,43.51
2022-09-01T02:14:13.705Z,44.02
2022-09-01T02:16:41.243Z,43.54
2022-09-01T02:19:10.047Z,43.96
2022-09-01T02:21:44.613Z,43.77
2022-09-01T02:24:11.975Z,44.14
2022-09-01T02:26:45.862Z,44.98
2022-09-01T02:29:22.000Z,45.19
2022-09-01T02:31:50.675Z,44.92
2022-09-01T02:34:18.092Z,45.01
2022-09-01T02:36:49.429Z,45.58
2022-09-01T02:39:17.965Z,45.81
2022-09-01T02:41:45.752Z,45.01
2022-09-01T02:44:13.020Z,45.46
2022-09-01T02:46:42.035Z,45.83
2022-09-01T02:49:15.199Z,45.77
2022-09-01T02:51:43.483Z,48.85
2022-09-01T02:54:11.313Z,47.49
2022-09-01T02:56:38.519Z,47.75
2022-09-01T02:59:13.022Z,46.66
2022-09-01T03:01:40.289Z,48.68
2022-09-01T03:04:09.753Z,47.50
2022-09-01T03:06:37.899Z,48.88
2022-09-01T03:09:06.365Z,47.37
2022-09-01T03:11:37.489Z,46.33
2022-09-01T03:14:05.142Z,45.63
2022-09-01T03:16:33.237Z,44.68
2022-09-01T03:19:03.285Z,44.41
2022-09-01T03:21:32.116Z,44.27
2022-09-01T03:24:02.099Z,45.31
2022-09-01T03:26:29.988Z,45.44
2022-09-01T03:28:57.347Z,45.65
2022-09-01T03:31:27.665Z,47.89
2022-09-01T03:36:27.709Z,47.19
2022-09-01T03:38:55.275Z,47.57
2022-09-01T03:41:25.206Z,47.40
2022-09-01T03:43:56.806Z,47.01
2022-09-01T03:46:24.485Z,48.81
2022-09-01T03:48:53.101Z,47.85
2022-09-01T03:51:22.908Z,48.36
2022-09-01T03:53:57.610Z,47.78
2022-09-01T03:56:28.179Z,48.72
2022-09-01T03:58:56.352Z,48.57
2022-09-01T04:01:24.765Z,48.35
2022-09-01T04:03:53.073Z,49.11
2022-09-01T04:06:24.244Z,48.36
2022-09-01T04:08:56.814Z,49.00
2022-09-01T04:11:25.455Z,48.12
2022-09-01T04:13:53.287Z,47.49
2022-09-01T04:16:40.989Z,47.56
2022-09-01T04:19:20.278Z,46.89
2022-09-01T04:21:50.257Z,48.27
2022-09-01T04:24:19.187Z,45.60
2022-09-01T04:26:48.656Z,46.00
2022-09-01T04:29:19.499Z,46.83
2022-09-01T04:31:52.147Z,47.35
2022-09-01T04:34:22.172Z,47.39
2022-09-01T04:36:55.982Z,46.67
2022-09-01T04:39:23.535Z,47.03
2022-09-01T04:41:51.140Z,46.57
2022-09-01T04:44:20.215Z,45.80
2022-09-01T04:46:50.686Z,46.08
2022-09-01T04:49:22.243Z,46.11
2022-09-01T04:51:53.741Z,46.98
2022-09-01T04:54:22.676Z,46.92
2022-09-01T04:56:51.293Z,45.61
2022-09-01T04:59:20.416Z,44.60
2022-09-01T05:01:50.688Z,44.48
2022-09-01T05:04:19.585Z,44.54
2022-09-01T05:06:49.477Z,44.35
2022-09-01T05:09:18.381Z,43.57
2022-09-01T05:11:47.191Z,43.81
2022-09-01T05:14:19.021Z,44.10
2022-09-01T05:16:47.267Z,43.96
2022-09-01T05:19:17.528Z,45.33
2022-09-01T05:21:46.099Z,44.41
2022-09-01T05:24:15.404Z,44.20
2022-09-01T05:26:42.809Z,44.31
2022-09-01T05:29:17.604Z,45.49
2022-09-01T05:31:46.969Z,46.61
2022-09-01T05:34:20.063Z,46.43
2022-09-01T05:36:49.004Z,45.68
2022-09-01T05:39:16.538Z,46.20
2022-09-01T05:41:43.966Z,46.42
2022-09-01T05:44:11.802Z,47.09
2022-09-01T05:46:39.514Z,47.62
2022-09-01T05:49:09.305Z,47.46
2022-09-01T05:51:46.188Z,47.58
2022-09-01T05:54:18.911Z,48.57
2022-09-01T05:56:46.414Z,47.75
2022-09-01T05:59:24.372Z,51.56
2022-09-01T06:01:54.310Z,49.88
2022-09-01T06:04:23.058Z,49.17
2022-09-01T06:07:08.805Z,48.99
2022-09-01T06:09:38.621Z,49.12
2022-09-01T06:12:06.772Z,49.55
2022-09-01T06:14:34.508Z,48.96
2022-09-01T06:17:03.315Z,46.78
2022-09-01T06:19:36.897Z,48.56
2022-09-01T06:22:05.552Z,47.25
2022-09-01T06:24:32.834Z,47.64
2022-09-01T06:27:00.127Z,47.60
2022-09-01T06:29:27.642Z,46.88
2022-09-01T06:31:54.901Z,46.75
2022-09-01T06:34:22.403Z,46.42
2022-09-01T06:36:51.792Z,46.38
2022-09-01T06:39:21.927Z,46.68
2022-09-01T06:41:52.907Z,47.04
2022-09-01T06:44:23.226Z,46.67
2022-09-01T06:46:52.573Z,45.77
2022-09-01T06:49:21.627Z,45.60
2022-09-01T06:51:51.811Z,45.78
2022-09-01T06:54:21.693Z,45.57
2022-09-01T06:56:51.764Z,46.13
2022-09-01T06:59:36.530Z,46.26
2022-09-01T07:02:05.717Z,46.13
2022-09-01T07:04:36.001Z,45.53
2022-09-01T07:13:06.529Z,47.03
2022-09-01T07:18:27.533Z,45.99
2022-09-01T07:21:38.725Z,46.30
2022-09-01T07:24:07.694Z,47.34
2022-09-01T07:26:31.787Z,46.38
2022-09-01T07:29:04.214Z,46.75
2022-09-01T07:34:41.663Z,46.05
2022-09-01T07:39:56.802Z,48.28
2022-09-01T07:42:58.861Z,47.32
2022-09-01T07:45:32.680Z,48.77
2022-09-01T07:48:03.533Z,48.12
2022-09-01T07:51:34.636Z,48.22
2022-09-01T07:53:22.466Z,45.85
2022-09-01T07:55:54.397Z,46.05
2022-09-01T07:58:23.192Z,46.12
2022-09-01T08:00:53.312Z,47.60
2022-09-01T08:03:22.548Z,44.48
2022-09-01T08:05:54.764Z,44.45
2022-09-01T08:08:29.575Z,45.31
2022-09-01T08:11:04.949Z,45.58
2022-09-01T08:13:41.644Z,45.68
2022-09-01T08:16:16.863Z,46.23
2022-09-01T08:18:48.754Z,45.78
2022-09-01T08:21:22.258Z,45.54
2022-09-01T08:23:53.984Z,45.80
2022-09-01T08:26:22.237Z,46.07
2022-09-01T08:28:55.076Z,46.21
2022-09-01T08:31:24.162Z,46.82
2022-09-01T08:33:51.467Z,44.50
2022-09-01T08:36:23.728Z,44.55
2022-09-01T08:38:53.767Z,44.84
2022-09-01T08:41:21.087Z,43.92
2022-09-01T08:43:57.084Z,45.00
2022-09-01T08:46:26.741Z,44.75
2022-09-01T08:51:54.462Z,45.80
2022-09-01T08:54:45.589Z,45.57
2022-09-01T08:57:16.154Z,44.96
2022-09-01T08:59:46.651Z,45.32
2022-09-01T09:02:32.872Z,45.37
2022-09-01T09:05:15.478Z,45.63
2022-09-01T09:07:46.315Z,46.68
2022-09-01T09:10:22.035Z,45.12
2022-09-01T09:13:08.262Z,44.33
2022-09-01T09:15:41.561Z,45.41
2022-09-01T09:18:35.992Z,46.24
2022-09-01T09:21:15.655Z,45.09
2022-09-01T09:23:44.737Z,45.11
2022-09-01T09:26:16.723Z,44.58
2022-09-01T09:28:44.349Z,45.65
2022-09-01T09:31:28.768Z,45.88
2022-09-01T09:33:58.309Z,44.54
2022-09-01T09:36:33.384Z,45.12
2022-09-01T09:39:04.506Z,46.64
2022-09-01T09:41:32.341Z,45.86
2022-09-01T09:44:19.764Z,45.96
2022-09-01T09:46:47.772Z,45.74
2022-09-01T09:49:34.336Z,46.72
2022-09-01T09:52:04.158Z,44.10
2022-09-01T09:54:32.133Z,47.16
2022-09-01T09:57:18.334Z,44.29
2022-09-01T10:00:04.834Z,45.24
2022-09-01T10:02:44.042Z,44.64
2022-09-01T10:05:31.707Z,45.25
2022-09-01T10:07:58.873Z,45.49
2022-09-01T10:10:28.106Z,46.96
2022-09-01T10:12:55.996Z,46.67
2022-09-01T10:15:24.174Z,45.97
2022-09-01T10:18:13.594Z,44.31
2022-09-01T10:20:40.417Z,46.03
2022-09-01T10:23:15.105Z,47.31
2022-09-01T10:25:43.216Z,43.56
2022-09-01T10:28:20.922Z,44.88
2022-09-01T10:30:48.588Z,43.71
2022-09-01T10:33:21.930Z,43.18
2022-09-01T10:35:50.541Z,43.65
2022-09-01T10:38:23.095Z,44.62
2022-09-01T10:41:07.787Z,41.14
2022-09-01T10:43:45.659Z,41.54
2022-09-01T10:46:26.100Z,43.35
2022-09-01T10:48:55.434Z,42.32
2022-09-01T10:51:29.700Z,42.81
2022-09-01T10:54:04.045Z,42.05
2022-09-01T10:56:51.404Z,42.80
2022-09-01T10:59:43.504Z,41.72
2022-09-01T11:02:28.703Z,41.07
2022-09-01T11:04:58.997Z,40.46
2022-09-01T11:07:50.585Z,40.66
2022-09-01T11:10:32.690Z,39.52
2022-09-01T11:13:10.402Z,39.14
2022-09-01T11:15:39.262Z,38.84
2022-09-01T11:18:17.548Z,36.64
2022-09-01T11:20:46.714Z,36.63
2022-09-01T11:23:23.257Z,37.34
2022-09-01T11:28:41.803Z,37.64
2022-09-01T11:31:09.352Z,38.20
2022-09-01T11:33:55.338Z,35.19
2022-09-01T11:36:23.531Z,35.45
2022-09-01T11:38:55.234Z,36.20
2022-09-01T11:41:42.950Z,35.29
2022-09-01T11:44:29.309Z,35.66
2022-09-01T11:47:02.706Z,35.86
2022-09-01T11:49:31.569Z,34.12
2022-09-01T11:52:00.468Z,33.67
2022-09-01T11:54:30.386Z,33.33
2022-09-01T11:56:57.576Z,33.02
2022-09-01T11:59:35.317Z,33.39
2022-09-01T12:02:04.097Z,31.80
2022-09-01T12:04:33.624Z,31.70
2022-09-01T12:07:21.030Z,32.18
2022-09-01T12:09:48.464Z,31.34
2022-09-01T12:12:32.655Z,30.76
2022-09-01T12:15:06.480Z,30.77
2022-09-01T12:17:34.492Z,29.97
2022-09-01T12:20:21.267Z,29.13
2022-09-01T12:22:50.602Z,31.97
2022-09-01T12:25:28.428Z,32.50
2022-09-01T12:27:55.671Z,29.57
2022-09-01T12:30:23.306Z,28.67
2022-09-01T12:32:50.731Z,29.22
2022-09-01T12:35:22.134Z,28.37
2022-09-01T12:37:50.481Z,29.80
2022-09-01T12:40:24.651Z,29.60
2022-09-01T12:42:52.404Z,29.13
2022-09-01T12:45:38.332Z,29.04
2022-09-01T12:48:05.834Z,28.29
2022-09-01T12:50:35.215Z,28.41
2022-09-01T12:53:02.526Z,30.72
2022-09-01T12:58:22.166Z,28.81
2022-09-01T13:01:05.278Z,29.61
2022-09-01T13:03:34.664Z,30.40
2022-09-01T13:06:03.301Z,30.45
2022-09-01T13:08:34.280Z,30.34
2022-09-01T13:11:03.970Z,29.76
2022-09-01T13:13:31.166Z,29.21
2022-09-01T13:16:01.603Z,30.13
2022-09-01T13:18:29.362Z,28.92
2022-09-01T13:20:57.057Z,28.94
2022-09-01T13:23:24.306Z,28.17
2022-09-01T13:25:51.832Z,29.63
2022-09-01T13:28:21.588Z,30.56
2022-09-01T13:31:28.518Z,28.61
2022-09-01T13:36:46.527Z,28.73
2022-09-01T13:39:15.641Z,27.55
2022-09-01T13:41:43.470Z,27.22
2022-09-01T13:44:11.102Z,28.77
2022-09-01T13:49:42.513Z,29.48
2022-09-01T13:52:11.378Z,29.75
2022-09-01T13:54:38.561Z,28.85
2022-09-01T13:57:06.413Z,27.46
2022-09-01T13:59:33.853Z,27.56
2022-09-01T14:02:01.704Z,28.22
2022-09-01T14:04:29.336Z,27.95
2022-09-01T14:06:56.690Z,26.93
2022-09-01T14:09:25.753Z,28.74
2022-09-01T14:11:53.959Z,26.26
2022-09-01T14:14:21.243Z,27.19
2022-09-01T14:16:49.295Z,28.28
2022-09-01T14:19:16.829Z,27.58
2022-09-01T14:21:44.459Z,28.01
2022-09-01T14:24:13.044Z,27.76
2022-09-01T14:26:41.226Z,27.34
2022-09-01T14:29:08.430Z,26.80
2022-09-01T14:31:37.754Z,27.16
2022-09-01T14:34:06.751Z,26.40
2022-09-01T14:36:34.180Z,27.76
2022-09-01T14:39:01.619Z,26.42
2022-09-01T14:41:29.678Z,27.86
2022-09-01T14:44:03.096Z,28.48
2022-09-01T14:46:33.911Z,26.84
2022-09-01T14:49:01.843Z,27.46
2022-09-01T14:54:17.067Z,27.07
2022-09-01T14:57:28.582Z,26.78
2022-09-01T14:59:32.696Z,25.83
2022-09-01T15:01:59.907Z,25.35
2022-09-01T15:04:27.933Z,25.65
2022-09-01T15:06:55.448Z,24.93
2022-09-01T15:09:22.804Z,24.13
2022-09-01T15:11:49.963Z,25.22
2022-09-01T15:14:17.439Z,25.22
2022-09-01T15:16:44.637Z,23.71
2022-09-01T15:19:12.666Z,25.17
2022-09-01T15:21:40.937Z,24.87
2022-09-01T15:24:08.671Z,24.68
2022-09-01T15:26:35.894Z,25.39
2022-09-01T15:29:04.632Z,25.50
2022-09-01T15:31:33.779Z,24.54
2022-09-01T15:34:02.205Z,26.21
2022-09-01T15:36:29.738Z,26.14
2022-09-01T15:38:57.320Z,26.28
2022-09-01T15:41:28.650Z,24.59
2022-09-01T15:43:56.381Z,25.00
2022-09-01T15:46:31.851Z,25.59
2022-09-01T15:49:03.573Z,26.29
2022-09-01T15:51:48.853Z,26.19
2022-09-01T15:54:18.228Z,27.57
2022-09-01T15:56:47.248Z,27.81
2022-09-01T15:59:14.509Z,28.67
2022-09-01T16:01:44.473Z,25.03
2022-09-01T16:04:15.967Z,24.85
2022-09-01T16:06:44.581Z,28.01
2022-09-01T16:09:12.479Z,28.76
2022-09-01T16:11:40.396Z,29.54
2022-09-01T16:14:07.598Z,29.81
2022-09-01T16:16:40.063Z,28.67
2022-09-01T16:19:14.392Z,28.67
2022-09-01T16:21:53.332Z,29.31
2022-09-01T16:24:20.576Z,29.99
2022-09-01T16:26:48.417Z,28.30
2022-09-01T16:29:29.260Z,28.96
2022-09-01T16:31:56.692Z,29.71
2022-09-01T16:34:27.730Z,28.89
2022-09-01T16:37:01.883Z,28.27
2022-09-01T16:39:47.242Z,28.20
2022-09-01T16:42:22.997Z,29.51
2022-09-01T16:44:52.763Z,30.05
2022-09-01T16:47:31.040Z,30.61
2022-09-01T16:50:03.913Z,30.46
2022-09-01T16:52:34.522Z,29.83
2022-09-01T16:55:23.997Z,29.95
2022-09-01T16:58:03.069Z,30.78
2022-09-01T17:00:32.937Z,30.66
2022-09-01T17:03:18.003Z,30.16
2022-09-01T17:06:05.440Z,30.56
2022-09-01T17:08:34.379Z,30.75
2022-09-01T17:11:13.059Z,30.69
2022-09-01T17:13:44.916Z,30.28
2022-09-01T17:16:24.043Z,30.04
2022-09-01T17:18:53.740Z,29.94
2022-09-01T17:21:27.206Z,29.53
2022-09-01T17:24:12.307Z,29.12
2022-09-01T17:26:40.290Z,28.86
2022-09-01T17:29:24.790Z,29.31
2022-09-01T17:31:58.010Z,28.23
2022-09-01T17:34:48.526Z,28.77
2022-09-01T17:37:20.618Z,29.21
2022-09-01T17:39:55.424Z,29.72
2022-09-01T17:42:30.246Z,29.60
2022-09-01T17:45:02.123Z,29.65
2022-09-01T17:47:36.900Z,30.34
2022-09-01T17:50:09.382Z,30.20
2022-09-01T17:52:52.358Z,30.53
2022-09-01T17:55:38.897Z,30.88
2022-09-01T17:58:14.058Z,31.52
2022-09-01T18:00:47.173Z,32.34
2022-09-01T18:03:19.062Z,32.46
2022-09-01T18:05:48.455Z,32.42
2022-09-01T18:08:29.551Z,32.52
2022-09-01T18:10:59.282Z,32.52
2022-09-01T18:13:52.531Z,32.67
2022-09-01T18:16:22.209Z,32.56
2022-09-01T18:18:51.177Z,32.49
2022-09-01T18:21:25.698Z,32.93
2022-09-01T18:23:55.914Z,33.29
2022-09-01T18:26:29.559Z,33.65
2022-09-01T18:28:57.158Z,33.64
2022-09-01T18:31:33.587Z,34.04
2022-09-01T18:34:14.512Z,34.20
2022-09-01T18:36:41.652Z,34.21
2022-09-01T18:39:26.243Z,34.39
2022-09-01T18:42:05.686Z,34.32
2022-09-01T18:44:34.819Z,34.51
2022-09-01T18:47:15.395Z,34.50
2022-09-01T18:49:42.806Z,34.95
2022-09-01T18:52:28.931Z,34.93
2022-09-01T18:55:15.021Z,34.80
2022-09-01T18:57:42.958Z,35.52
2022-09-01T19:00:19.250Z,35.49
2022-09-01T19:02:59.573Z,35.25
2022-09-01T19:05:33.399Z,35.79
2022-09-01T19:08:07.187Z,35.73
2022-09-01T19:10:53.859Z,35.55
2022-09-01T19:13:30.651Z,35.49
2022-09-01T19:16:04.757Z,35.93
2022-09-01T19:18:39.326Z,35.62
2022-09-01T19:21:14.184Z,35.48
2022-09-01T19:23:42.454Z,35.18
2022-09-01T19:26:18.829Z,35.39
2022-09-01T19:28:48.136Z,35.54
2022-09-01T19:31:16.210Z,35.41
2022-09-01T19:33:45.197Z,34.87
2022-09-01T19:36:16.853Z,34.80
2022-09-01T19:38:45.426Z,34.65
2022-09-01T19:41:19.065Z,34.77
2022-09-01T19:43:48.469Z,35.55
2022-09-01T19:46:25.190Z,35.12
2022-09-01T19:48:58.777Z,35.25
2022-09-01T19:51:28.361Z,35.44
2022-09-01T19:53:58.457Z,35.33
2022-09-01T19:56:31.159Z,35.75
2022-09-01T19:59:14.200Z,35.79
2022-09-01T20:02:00.175Z,35.89
2022-09-01T20:04:33.703Z,35.75
2022-09-01T20:07:01.664Z,36.20
2022-09-01T20:09:46.015Z,36.31
2022-09-01T20:12:16.195Z,36.28
2022-09-01T20:14:53.106Z,36.13
2022-09-01T20:17:23.036Z,36.02
2022-09-01T20:19:55.236Z,36.16
2022-09-01T20:22:31.119Z,36.06
2022-09-01T20:25:10.212Z,36.54
2022-09-01T20:27:44.254Z,36.22
2022-09-01T20:30:14.121Z,36.21
2022-09-01T20:32:45.679Z,36.80
2022-09-01T20:35:14.461Z,36.25
2022-09-01T20:37:59.179Z,36.23
2022-09-01T20:40:29.984Z,36.38
2022-09-01T20:43:18.532Z,36.18
2022-09-01T20:45:46.206Z,36.70
2022-09-01T20:48:14.857Z,37.63
2022-09-01T20:51:15.344Z,37.28
2022-09-01T20:53:50.173Z,37.33
2022-09-01T20:56:33.002Z,36.88
2022-09-01T20:59:01.369Z,36.53
2022-09-01T21:01:31.808Z,37.00
2022-09-01T21:04:10.230Z,36.76
2022-09-01T21:06:55.402Z,36.75
2022-09-01T21:09:22.519Z,36.40
2022-09-01T21:11:59.013Z,36.46
2022-09-01T21:14:47.343Z,36.09
2022-09-01T21:17:36.876Z,36.08
2022-09-01T21:20:08.494Z,36.24
2022-09-01T21:22:36.022Z,36.15
2022-09-01T21:25:03.541Z,35.84
2022-09-01T21:27:33.144Z,36.63
2022-09-01T21:30:02.922Z,36.78
2022-09-01T21:32:32.073Z,36.79
2022-09-01T21:34:59.578Z,37.61
2022-09-01T21:37:27.667Z,36.97
2022-09-01T21:39:55.186Z,36.64
2022-09-01T21:42:22.930Z,36.66
2022-09-01T21:44:50.746Z,38.52
2022-09-01T21:47:21.741Z,37.43
2022-09-01T21:49:48.900Z,37.62
2022-09-01T21:52:16.449Z,36.95
2022-09-01T21:54:43.673Z,36.62
2022-09-01T21:57:10.864Z,36.83
2022-09-01T21:59:38.326Z,36.75
2022-09-01T22:02:07.126Z,36.68
2022-09-01T22:04:37.069Z,36.00
2022-09-01T22:07:04.716Z,36.88
2022-09-01T22:09:32.026Z,36.93
2022-09-01T22:11:59.456Z,35.96
2022-09-01T22:14:27.913Z,35.72
2022-09-01T22:16:55.257Z,35.42
2022-09-01T22:19:22.784Z,35.22
2022-09-01T22:21:51.188Z,34.38
2022-09-01T22:24:19.339Z,34.37
2022-09-01T22:26:47.599Z,33.32
2022-09-01T22:29:14.746Z,33.37
2022-09-01T22:31:41.888Z,31.09
2022-09-01T22:34:09.473Z,29.61
2022-09-01T22:36:39.156Z,30.38
2022-09-01T22:39:07.435Z,30.94
2022-09-01T22:41:35.280Z,29.61
2022-09-01T22:44:02.959Z,29.47
2022-09-01T22:46:30.917Z,29.20
2022-09-01T22:48:58.797Z,29.60
2022-09-01T22:51:26.647Z,29.41
2022-09-01T22:53:54.549Z,30.05
2022-09-01T22:56:24.264Z,30.00
2022-09-01T22:58:54.124Z,29.66
2022-09-01T23:01:24.664Z,30.04
2022-09-01T23:03:52.172Z,29.48
2022-09-01T23:06:25.171Z,30.15
2022-09-01T23:08:56.204Z,29.54
2022-09-01T23:11:24.033Z,28.75
2022-09-01T23:13:51.382Z,28.55
2022-09-01T23:16:20.145Z,28.50
2022-09-01T23:18:47.965Z,29.45
2022-09-01T23:21:16.007Z,28.97
2022-09-01T23:23:43.258Z,28.74
2022-09-01T23:26:11.521Z,27.38
2022-09-01T23:28:38.910Z,28.55
2022-09-01T23:31:13.343Z,29.60
2022-09-01T23:33:41.015Z,29.72
2022-09-01T23:36:09.491Z,29.25
2022-09-01T23:38:36.852Z,27.96
2022-09-01T23:41:05.833Z,29.24
2022-09-01T23:43:33.211Z,28.60
2022-09-01T23:46:00.428Z,29.83
2022-09-01T23:48:28.102Z,29.09
2022-09-01T23:50:57.341Z,28.00
2022-09-01T23:53:27.026Z,28.23
2022-09-01T23:55:55.877Z,28.06
2022-09-01T23:58:23.747Z,29.08
